createdAt,value
2018-05-31T00:01:20.455Z,2.05
2018-05-31T00:03:48.228Z,2.00
2018-05-31T00:06:15.984Z,2.10
2018-05-31T00:08:43.761Z,1.90
2018-05-31T00:11:11.537Z,1.95
2018-05-31T00:13:39.415Z,2.00
2018-05-31T00:16:07.076Z,1.85
2018-05-31T00:18:35.100Z,1.98
2018-05-31T00:21:02.950Z,2.00
2018-05-31T00:23:30.640Z,2.17
2018-05-31T00:25:59.134Z,2.17
2018-05-31T00:28:26.969Z,1.98
2018-05-31T00:30:54.770Z,2.00
2018-05-31T00:33:22.592Z,2.03
2018-05-31T00:35:51.065Z,2.20
2018-05-31T00:38:19.636Z,2.03
2018-05-31T00:40:47.411Z,2.00
2018-05-31T00:43:15.109Z,1.90
2018-05-31T00:45:42.889Z,2.10
2018-05-31T00:48:10.638Z,2.00
2018-05-31T00:50:38.441Z,2.13
2018-05-31T00:53:06.080Z,2.15
2018-05-31T00:55:45.745Z,2.20
2018-05-31T00:58:13.441Z,1.83
2018-05-31T01:00:41.299Z,2.00
2018-05-31T01:03:09.075Z,2.00
2018-05-31T01:05:36.953Z,1.90
2018-05-31T01:08:04.772Z,2.12
2018-05-31T01:10:33.364Z,2.30
2018-05-31T01:13:02.127Z,2.30
2018-05-31T01:15:30.006Z,2.10
2018-05-31T01:17:57.886Z,2.20
2018-05-31T01:20:25.592Z,2.80
2018-05-31T01:22:54.153Z,2.10
2018-05-31T01:25:21.929Z,2.10
2018-05-31T01:27:49.631Z,2.28
2018-05-31T01:30:18.199Z,2.20
2018-05-31T01:32:45.871Z,2.20
2018-05-31T01:35:13.749Z,2.37
2018-05-31T01:37:41.527Z,2.20
2018-05-31T01:40:09.201Z,1.90
2018-05-31T01:42:36.874Z,1.92
2018-05-31T01:45:04.857Z,2.12
2018-05-31T01:47:32.735Z,2.17
2018-05-31T01:50:00.616Z,2.37
2018-05-31T01:52:28.420Z,2.20
2018-05-31T01:54:56.986Z,2.13
2018-05-31T01:57:24.787Z,2.08
2018-05-31T01:59:52.537Z,2.22
2018-05-31T02:02:20.312Z,2.40
2018-05-31T02:04:47.987Z,2.03
2018-05-31T02:07:15.674Z,2.62
2018-05-31T02:09:43.410Z,2.03
2018-05-31T02:12:11.953Z,2.95
2018-05-31T02:14:39.707Z,2.35
2018-05-31T02:17:07.587Z,2.00
2018-05-31T02:19:35.364Z,2.40
2018-05-31T02:22:03.348Z,2.00
2018-05-31T02:24:31.169Z,1.80
2018-05-31T02:26:59.943Z,2.10
2018-05-31T02:29:28.522Z,2.03
2018-05-31T02:31:56.396Z,2.20
2018-05-31T02:34:24.172Z,2.30
2018-05-31T02:36:51.948Z,2.15
2018-05-31T02:39:19.652Z,2.08
2018-05-31T02:41:48.217Z,2.10
2018-05-31T02:44:16.097Z,2.40
2018-05-31T02:46:43.771Z,2.20
2018-05-31T02:49:11.548Z,2.20
2018-05-31T02:51:39.216Z,2.10
2018-05-31T02:54:07.126Z,2.17
2018-05-31T02:56:34.875Z,2.50
2018-05-31T02:59:02.960Z,2.00
2018-05-31T03:01:30.662Z,2.22
2018-05-31T03:03:59.252Z,2.37
2018-05-31T03:06:27.005Z,2.28
2018-05-31T03:08:54.684Z,2.30
2018-05-31T03:11:22.385Z,2.90
2018-05-31T03:13:50.130Z,3.58
2018-05-31T03:16:17.906Z,2.40
2018-05-31T03:18:45.597Z,3.10
2018-05-31T03:21:13.360Z,3.37
2018-05-31T03:23:41.135Z,3.33
2018-05-31T03:26:08.830Z,3.30
2018-05-31T03:28:36.730Z,2.37
2018-05-31T03:31:05.183Z,2.40
2018-05-31T03:33:33.160Z,2.70
2018-05-31T03:36:01.051Z,2.37
2018-05-31T03:38:29.025Z,2.72
2018-05-31T03:40:57.617Z,2.50
2018-05-31T03:43:25.309Z,2.83
2018-05-31T03:45:53.885Z,2.77
2018-05-31T03:48:21.661Z,2.80
2018-05-31T03:50:49.348Z,2.75
2018-05-31T03:53:16.985Z,2.97
2018-05-31T03:55:44.714Z,2.60
2018-05-31T03:58:12.368Z,2.85
2018-05-31T04:00:40.052Z,2.25
2018-05-31T04:03:07.810Z,3.03
2018-05-31T04:05:35.712Z,2.50
2018-05-31T04:08:03.533Z,2.73
2018-05-31T04:10:31.443Z,2.55
2018-05-31T04:13:00.404Z,2.37
2018-05-31T04:15:28.870Z,2.87
2018-05-31T04:17:56.614Z,2.95
2018-05-31T04:20:24.248Z,3.00
2018-05-31T04:22:52.700Z,2.47
2018-05-31T04:25:21.275Z,2.70
2018-05-31T04:27:49.056Z,2.63
2018-05-31T04:30:16.749Z,2.80
2018-05-31T04:32:44.605Z,2.65
2018-05-31T04:35:12.302Z,2.60
2018-05-31T04:37:40.874Z,2.28
2018-05-31T04:40:08.654Z,2.60
2018-05-31T04:42:36.529Z,2.75
2018-05-31T04:45:04.311Z,2.60
2018-05-31T04:47:32.185Z,2.85
2018-05-31T04:49:59.894Z,2.90
2018-05-31T04:52:28.472Z,3.00
2018-05-31T04:54:56.329Z,4.37
2018-05-31T04:57:24.132Z,2.87
2018-05-31T04:59:51.878Z,4.45
2018-05-31T05:02:19.693Z,2.70
2018-05-31T05:04:48.250Z,2.97
2018-05-31T05:07:16.069Z,2.58
2018-05-31T05:09:44.700Z,3.00
2018-05-31T05:12:12.425Z,3.30
2018-05-31T05:14:40.398Z,3.42
2018-05-31T05:17:08.155Z,2.95
2018-05-31T05:19:35.856Z,2.63
2018-05-31T05:22:03.607Z,2.60
2018-05-31T05:24:31.384Z,2.50
2018-05-31T05:26:59.020Z,4.00
2018-05-31T05:29:26.831Z,2.60
2018-05-31T05:31:54.509Z,2.80
2018-05-31T05:34:22.308Z,3.00
2018-05-31T05:36:50.370Z,2.87
2018-05-31T05:39:20.705Z,2.62
2018-05-31T05:41:48.687Z,2.92
2018-05-31T05:44:16.826Z,2.70
2018-05-31T05:46:45.395Z,2.22
2018-05-31T05:49:14.064Z,2.45
2018-05-31T05:51:41.834Z,3.80
2018-05-31T05:54:09.708Z,2.80
2018-05-31T05:56:37.387Z,2.78
2018-05-31T05:59:05.169Z,1.90
2018-05-31T06:01:32.936Z,3.47
2018-05-31T06:04:00.633Z,1.83
2018-05-31T06:06:28.409Z,3.92
2018-05-31T06:08:56.857Z,3.03
2018-05-31T06:11:24.577Z,1.77
2018-05-31T06:13:52.248Z,2.20
2018-05-31T06:16:20.107Z,1.87
2018-05-31T06:18:47.781Z,2.03
2018-05-31T06:21:15.789Z,2.30
2018-05-31T06:23:43.458Z,2.67
2018-05-31T06:26:11.985Z,2.28
2018-05-31T06:28:39.705Z,1.85
2018-05-31T06:31:07.582Z,2.00
2018-05-31T06:33:35.379Z,1.92
2018-05-31T06:36:03.237Z,1.80
2018-05-31T06:38:31.014Z,1.77
2018-05-31T06:40:58.685Z,2.40
2018-05-31T06:43:26.311Z,1.83
2018-05-31T06:45:54.010Z,1.35
2018-05-31T06:48:21.712Z,1.80
2018-05-31T06:50:49.897Z,1.80
2018-05-31T06:53:18.273Z,2.08
2018-05-31T06:55:46.985Z,2.60
2018-05-31T06:58:14.766Z,2.45
2018-05-31T07:00:42.686Z,1.90
2018-05-31T07:03:11.443Z,2.10
2018-05-31T07:05:39.217Z,2.20
2018-05-31T07:08:06.996Z,2.33
2018-05-31T07:10:34.655Z,2.30
2018-05-31T07:13:02.451Z,1.83
2018-05-31T07:15:30.240Z,2.20
2018-05-31T07:17:57.995Z,2.13
2018-05-31T07:20:25.792Z,1.55
2018-05-31T07:22:53.576Z,1.50
2018-05-31T07:25:21.251Z,1.53
2018-05-31T07:27:49.008Z,2.30
2018-05-31T07:30:16.907Z,2.10
2018-05-31T07:32:44.655Z,1.80
2018-05-31T07:35:13.659Z,1.70
2018-05-31T07:37:41.434Z,1.27
2018-05-31T07:40:09.210Z,1.80
2018-05-31T07:42:37.081Z,1.30
2018-05-31T07:45:05.070Z,1.92
2018-05-31T07:47:32.769Z,1.77
2018-05-31T07:50:00.416Z,1.40
2018-05-31T07:52:28.202Z,1.40
2018-05-31T07:54:55.971Z,1.40
2018-05-31T07:57:23.647Z,1.40
2018-05-31T07:59:51.421Z,1.40
2018-05-31T08:02:19.198Z,1.27
2018-05-31T08:04:47.161Z,1.27
2018-05-31T08:07:15.339Z,1.30
2018-05-31T08:09:43.238Z,1.30
2018-05-31T08:12:10.915Z,1.15
2018-05-31T08:14:38.585Z,1.30
2018-05-31T08:17:06.289Z,1.05
2018-05-31T08:19:34.452Z,1.45
2018-05-31T08:22:03.234Z,1.50
2018-05-31T08:24:31.109Z,1.20
2018-05-31T08:26:58.904Z,1.40
2018-05-31T08:29:26.601Z,1.40
2018-05-31T08:31:54.235Z,1.33
2018-05-31T08:34:22.031Z,1.20
2018-05-31T08:36:49.811Z,1.40
2018-05-31T08:39:17.606Z,1.30
2018-05-31T08:41:45.228Z,1.40
2018-05-31T08:44:13.749Z,1.40
2018-05-31T08:46:41.527Z,1.40
2018-05-31T08:49:09.303Z,1.40
2018-05-31T08:51:37.184Z,1.30
2018-05-31T08:54:04.992Z,1.40
2018-05-31T08:56:32.839Z,1.23
2018-05-31T08:59:00.479Z,1.40
2018-05-31T09:01:28.144Z,1.40
2018-05-31T09:03:56.678Z,1.50
2018-05-31T09:06:24.455Z,1.30
2018-05-31T09:08:52.234Z,1.20
2018-05-31T09:11:20.106Z,1.35
2018-05-31T09:13:47.808Z,1.40
2018-05-31T09:16:15.581Z,1.33
2018-05-31T09:18:44.181Z,1.35
2018-05-31T09:21:11.962Z,1.30
2018-05-31T09:23:40.664Z,1.37
2018-05-31T09:26:08.432Z,1.40
2018-05-31T09:28:36.185Z,1.40
2018-05-31T09:31:03.976Z,1.10
2018-05-31T09:33:31.671Z,1.55
2018-05-31T09:35:59.433Z,1.20
2018-05-31T09:38:27.201Z,1.53
2018-05-31T09:40:54.880Z,1.20
2018-05-31T09:43:23.369Z,1.60
2018-05-31T09:45:51.047Z,1.70
2018-05-31T09:48:18.798Z,1.30
2018-05-31T09:50:46.575Z,1.30
2018-05-31T09:53:14.550Z,1.50
2018-05-31T09:55:42.233Z,1.30
2018-05-31T09:58:10.240Z,1.60
2018-05-31T10:00:37.888Z,1.30
2018-05-31T10:03:05.680Z,1.43
2018-05-31T10:05:33.321Z,1.40
2018-05-31T10:08:01.760Z,1.48
2018-05-31T10:10:29.444Z,1.77
2018-05-31T10:12:57.299Z,1.40
2018-05-31T10:15:25.042Z,1.52
2018-05-31T10:17:53.488Z,1.40
2018-05-31T10:20:21.368Z,1.70
2018-05-31T10:22:49.118Z,1.50
2018-05-31T10:25:16.898Z,1.50
2018-05-31T10:27:44.752Z,1.48
2018-05-31T10:30:12.582Z,1.37
2018-05-31T10:32:40.224Z,1.60
2018-05-31T10:35:08.008Z,1.50
2018-05-31T10:37:35.780Z,1.70
2018-05-31T10:40:03.508Z,1.65
2018-05-31T10:42:31.942Z,1.50
2018-05-31T10:44:59.751Z,1.40
2018-05-31T10:47:27.412Z,1.70
2018-05-31T10:49:55.087Z,1.70
2018-05-31T10:52:22.834Z,1.47
2018-05-31T10:54:50.781Z,1.60
2018-05-31T10:57:19.205Z,1.40
2018-05-31T10:59:46.880Z,1.58
2018-05-31T11:02:14.513Z,1.70
2018-05-31T11:04:43.076Z,1.70
2018-05-31T11:07:10.934Z,2.00
2018-05-31T11:09:38.812Z,2.00
2018-05-31T11:12:06.517Z,1.85
2018-05-31T11:14:34.140Z,1.42
2018-05-31T11:17:01.937Z,2.05
2018-05-31T11:19:29.635Z,1.80
2018-05-31T11:21:57.387Z,1.80
2018-05-31T11:24:25.273Z,1.60
2018-05-31T11:26:53.149Z,1.80
2018-05-31T11:29:21.077Z,1.50
2018-05-31T11:31:49.730Z,1.90
2018-05-31T11:34:17.599Z,1.90
2018-05-31T11:36:45.376Z,1.80
2018-05-31T11:39:13.045Z,2.05
2018-05-31T11:41:41.081Z,1.60
2018-05-31T11:44:08.909Z,1.73
2018-05-31T11:46:36.686Z,1.83
2018-05-31T11:49:04.463Z,2.22
2018-05-31T11:51:32.239Z,1.87
2018-05-31T11:54:00.016Z,2.12
2018-05-31T11:56:27.691Z,2.00
2018-05-31T11:58:55.469Z,1.80
2018-05-31T12:01:23.618Z,2.00
2018-05-31T12:03:52.248Z,2.35
2018-05-31T12:06:19.943Z,2.03
2018-05-31T12:08:47.797Z,1.92
2018-05-31T12:11:15.984Z,2.10
2018-05-31T12:13:43.848Z,2.20
2018-05-31T12:16:11.827Z,2.42
2018-05-31T12:18:39.593Z,2.05
2018-05-31T12:21:07.292Z,2.08
2018-05-31T12:23:35.075Z,2.17
2018-05-31T12:26:02.741Z,2.12
2018-05-31T12:28:30.742Z,2.10
2018-05-31T12:30:58.579Z,2.15
2018-05-31T12:33:26.260Z,2.47
2018-05-31T12:35:54.054Z,2.40
2018-05-31T12:38:21.756Z,2.27
2018-05-31T12:40:49.532Z,2.35
2018-05-31T12:43:17.392Z,2.00
2018-05-31T12:45:45.189Z,2.53
2018-05-31T12:48:12.935Z,2.87
2018-05-31T12:50:40.711Z,3.35
2018-05-31T12:53:08.489Z,2.60
2018-05-31T12:55:36.289Z,3.30
2018-05-31T12:58:03.957Z,3.45
2018-05-31T13:00:31.629Z,3.58
2018-05-31T13:02:59.386Z,3.15
2018-05-31T13:05:27.084Z,2.50
2018-05-31T13:07:54.838Z,3.53
2018-05-31T13:10:22.719Z,3.10
2018-05-31T13:12:50.497Z,1.73
2018-05-31T13:15:18.485Z,2.03
2018-05-31T13:17:46.357Z,2.40
2018-05-31T13:20:14.253Z,2.33
2018-05-31T13:22:41.935Z,2.37
2018-05-31T13:25:09.734Z,2.47
2018-05-31T13:27:38.303Z,2.08
2018-05-31T13:30:06.052Z,2.70
2018-05-31T13:32:33.752Z,2.65
2018-05-31T13:35:01.502Z,2.73
2018-05-31T13:37:29.300Z,2.60
2018-05-31T13:39:56.971Z,2.93
2018-05-31T13:42:24.651Z,2.75
2018-05-31T13:44:52.608Z,3.10
2018-05-31T13:47:20.310Z,2.37
2018-05-31T13:49:47.940Z,2.40
2018-05-31T13:52:15.623Z,2.60
2018-05-31T13:54:43.506Z,2.30
2018-05-31T13:57:11.304Z,2.95
2018-05-31T13:59:38.957Z,3.30
2018-05-31T14:02:06.632Z,2.90
2018-05-31T14:04:34.334Z,2.90
2018-05-31T14:07:02.287Z,2.60
2018-05-31T14:09:30.074Z,2.65
2018-05-31T14:11:57.761Z,2.60
2018-05-31T14:14:25.532Z,3.28
2018-05-31T14:16:53.211Z,2.60
2018-05-31T14:19:20.985Z,2.60
2018-05-31T14:21:48.635Z,2.55
2018-05-31T14:24:16.537Z,2.80
2018-05-31T14:26:44.599Z,3.10
2018-05-31T14:29:12.713Z,3.97
2018-05-31T14:31:40.400Z,3.12
2018-05-31T14:34:08.080Z,3.45
2018-05-31T14:36:35.949Z,3.20
2018-05-31T14:39:03.773Z,3.70
2018-05-31T14:41:32.526Z,3.40
2018-05-31T14:44:00.232Z,3.87
2018-05-31T14:46:28.841Z,2.80
2018-05-31T14:48:56.509Z,3.28
2018-05-31T14:51:24.364Z,2.85
2018-05-31T14:53:52.149Z,2.80
2018-05-31T14:56:19.925Z,2.78
2018-05-31T14:58:48.418Z,3.70
2018-05-31T15:01:16.277Z,3.60
2018-05-31T15:03:43.963Z,2.53
2018-05-31T15:06:11.727Z,3.12
2018-05-31T15:08:39.419Z,2.80
2018-05-31T15:11:07.272Z,2.17
2018-05-31T15:13:34.971Z,2.25
2018-05-31T15:16:02.819Z,2.30
2018-05-31T15:18:30.497Z,2.55
2018-05-31T15:20:58.170Z,2.65
2018-05-31T15:23:25.838Z,2.60
2018-05-31T15:25:53.826Z,2.70
2018-05-31T15:28:21.608Z,2.30
2018-05-31T15:30:49.381Z,2.50
2018-05-31T15:33:17.155Z,2.53
2018-05-31T15:35:44.936Z,2.60
2018-05-31T15:38:12.629Z,2.70
2018-05-31T15:40:40.484Z,2.80
2018-05-31T15:43:08.180Z,2.30
2018-05-31T15:45:35.936Z,2.20
2018-05-31T15:48:03.732Z,2.55
2018-05-31T15:50:31.411Z,2.53
2018-05-31T15:52:59.184Z,2.30
2018-05-31T15:55:26.943Z,2.40
2018-05-31T15:57:54.924Z,1.90
2018-05-31T16:00:22.803Z,1.80
2018-05-31T16:02:51.325Z,2.00
2018-05-31T16:05:19.092Z,2.00
2018-05-31T16:07:46.865Z,1.92
2018-05-31T16:10:14.619Z,2.03
2018-05-31T16:12:42.395Z,2.13
2018-05-31T16:15:10.529Z,2.00
2018-05-31T16:17:38.276Z,1.75
2018-05-31T16:20:05.956Z,1.83
2018-05-31T16:22:33.635Z,2.20
2018-05-31T16:25:01.612Z,2.20
2018-05-31T16:27:29.280Z,2.00
2018-05-31T16:29:57.241Z,1.90
2018-05-31T16:32:25.088Z,2.17
2018-05-31T16:34:53.816Z,2.75
2018-05-31T16:37:21.529Z,2.00
2018-05-31T16:39:49.273Z,2.62
2018-05-31T16:42:17.041Z,2.60
2018-05-31T16:44:45.151Z,2.37
2018-05-31T16:47:12.823Z,2.33
2018-05-31T16:49:40.678Z,2.10
2018-05-31T16:52:08.354Z,2.50
2018-05-31T16:54:36.230Z,3.17
2018-05-31T16:57:03.929Z,3.55
2018-05-31T16:59:31.783Z,3.00
2018-05-31T17:01:59.456Z,3.17
2018-05-31T17:04:27.235Z,3.10
2018-05-31T17:06:55.043Z,2.85
2018-05-31T17:09:22.890Z,3.00
2018-05-31T17:11:50.769Z,3.03
2018-05-31T17:14:18.543Z,2.83
2018-05-31T17:16:46.341Z,2.15
2018-05-31T17:19:14.096Z,2.47
2018-05-31T17:21:41.898Z,2.85
2018-05-31T17:24:09.955Z,2.53
2018-05-31T17:26:37.837Z,2.72
2018-05-31T17:29:05.536Z,2.70
2018-05-31T17:31:33.316Z,3.20
2018-05-31T17:34:01.063Z,2.25
2018-05-31T17:36:28.940Z,3.22
2018-05-31T17:38:56.576Z,3.90
2018-05-31T17:41:25.025Z,3.25
2018-05-31T17:43:53.090Z,2.65
2018-05-31T17:46:20.865Z,2.80
2018-05-31T17:48:48.567Z,2.60
2018-05-31T17:51:16.220Z,3.60
2018-05-31T17:53:43.909Z,2.83
2018-05-31T17:56:11.590Z,2.97
2018-05-31T17:58:40.999Z,2.55
2018-05-31T18:01:08.956Z,3.33
2018-05-31T18:03:36.624Z,2.78
2018-05-31T18:06:04.405Z,2.92
2018-05-31T18:08:32.100Z,2.53
2018-05-31T18:10:59.857Z,2.78
2018-05-31T18:13:27.632Z,2.40
2018-05-31T18:15:55.513Z,4.00
2018-05-31T18:18:23.316Z,3.17
2018-05-31T18:20:51.207Z,2.90
2018-05-31T18:23:18.873Z,2.80
2018-05-31T18:25:46.532Z,2.60
2018-05-31T18:28:14.391Z,2.80
2018-05-31T18:30:42.065Z,2.90
2018-05-31T18:33:09.946Z,2.93
2018-05-31T18:35:37.585Z,2.90
2018-05-31T18:38:05.395Z,3.07
2018-05-31T18:40:33.109Z,3.03
2018-05-31T18:43:00.845Z,2.90
2018-05-31T18:45:28.524Z,2.78
2018-05-31T18:47:56.161Z,3.25
2018-05-31T18:50:24.791Z,3.40
2018-05-31T18:52:52.494Z,3.33
2018-05-31T18:55:20.240Z,3.10
2018-05-31T18:57:47.937Z,2.80
2018-05-31T19:00:15.601Z,3.05
2018-05-31T19:02:43.362Z,3.35
2018-05-31T19:05:11.139Z,2.97
2018-05-31T19:07:38.914Z,2.70
2018-05-31T19:10:06.633Z,2.45
2018-05-31T19:12:40.120Z,2.33
2018-05-31T19:15:07.815Z,2.55
2018-05-31T19:17:35.480Z,2.50
2018-05-31T19:20:03.254Z,2.50
2018-05-31T19:22:30.924Z,2.50
2018-05-31T19:25:04.617Z,2.42
2018-05-31T19:27:32.390Z,2.60
2018-05-31T19:33:01.944Z,2.60
2018-05-31T19:35:35.249Z,3.30
2018-05-31T19:38:03.025Z,2.92
2018-05-31T19:40:30.825Z,3.47
2018-05-31T19:46:03.345Z,3.20
2018-05-31T19:48:31.102Z,3.50
2018-05-31T19:50:58.877Z,3.30
2018-05-31T19:53:32.204Z,3.40
2018-05-31T19:56:00.072Z,3.53
2018-05-31T19:58:33.441Z,4.30
2018-05-31T20:01:06.982Z,3.67
2018-05-31T20:03:34.632Z,3.40
2018-05-31T20:06:02.312Z,3.70
2018-05-31T20:08:30.106Z,3.75
2018-05-31T20:10:57.890Z,3.50
2018-05-31T20:13:25.874Z,3.60
2018-05-31T20:15:53.845Z,3.87
2018-05-31T20:18:21.652Z,3.75
2018-05-31T20:20:49.551Z,3.50
2018-05-31T20:23:17.298Z,3.55
2018-05-31T20:25:45.051Z,4.10
2018-05-31T20:28:12.831Z,4.35
2018-05-31T20:30:40.660Z,4.40
2018-05-31T20:33:08.483Z,4.03
2018-05-31T20:35:36.116Z,3.92
2018-05-31T20:38:04.752Z,4.22
2018-05-31T20:40:32.451Z,4.47
2018-05-31T20:43:00.203Z,4.47
2018-05-31T20:45:27.980Z,4.35
2018-05-31T20:47:55.885Z,4.13
2018-05-31T20:50:23.843Z,5.40
2018-05-31T20:52:51.894Z,5.45
2018-05-31T20:55:19.735Z,4.80
2018-05-31T20:57:48.213Z,4.37
2018-05-31T21:00:15.889Z,4.18
2018-05-31T21:02:43.644Z,3.65
2018-05-31T21:05:11.340Z,3.60
2018-05-31T21:07:39.098Z,3.50
2018-05-31T21:10:06.768Z,3.90
2018-05-31T21:12:34.544Z,3.67
2018-05-31T21:15:02.320Z,3.55
2018-05-31T21:17:30.024Z,3.60
2018-05-31T21:19:57.775Z,3.22
2018-05-31T21:22:26.572Z,3.60
2018-05-31T21:24:54.272Z,3.47
2018-05-31T21:27:22.127Z,3.95
2018-05-31T21:29:49.857Z,3.75
2018-05-31T21:32:17.597Z,3.90
2018-05-31T21:34:45.272Z,3.92
2018-05-31T21:37:13.023Z,3.70
2018-05-31T21:39:40.697Z,3.60
2018-05-31T21:42:08.393Z,3.55
2018-05-31T21:44:36.253Z,3.60
2018-05-31T21:47:03.944Z,3.70
2018-05-31T21:49:31.597Z,3.85
2018-05-31T21:51:59.375Z,3.87
2018-05-31T21:54:27.022Z,3.40
2018-05-31T21:56:54.768Z,3.13
2018-05-31T21:59:22.605Z,3.30
2018-05-31T22:01:50.424Z,3.28
2018-05-31T22:04:18.154Z,3.13
2018-05-31T22:06:45.928Z,3.08
2018-05-31T22:09:13.574Z,3.28
2018-05-31T22:11:41.386Z,2.60
2018-05-31T22:14:09.053Z,2.60
2018-05-31T22:16:36.752Z,2.77
2018-05-31T22:19:04.504Z,2.87
2018-05-31T22:21:32.279Z,2.22
2018-05-31T22:24:00.057Z,2.72
2018-05-31T22:26:27.843Z,2.60
2018-05-31T22:28:55.488Z,3.37
2018-05-31T22:31:23.211Z,2.20
2018-05-31T22:33:51.062Z,2.28
2018-05-31T22:36:18.756Z,2.60
2018-05-31T22:38:46.431Z,2.30
2018-05-31T22:41:14.104Z,2.73
2018-05-31T22:43:41.859Z,3.10
2018-05-31T22:46:09.532Z,2.50
2018-05-31T22:48:37.308Z,2.90
2018-05-31T22:51:04.932Z,2.30
2018-05-31T22:53:32.600Z,2.70
2018-05-31T22:56:00.261Z,2.62
2018-05-31T22:58:27.928Z,2.70
2018-05-31T23:00:55.611Z,2.50
2018-05-31T23:03:23.561Z,2.45
2018-05-31T23:05:51.336Z,2.33
2018-05-31T23:08:19.133Z,2.60
2018-05-31T23:10:46.884Z,2.47
2018-05-31T23:13:14.593Z,2.90
2018-05-31T23:15:42.356Z,2.60
2018-05-31T23:18:10.134Z,2.50
2018-05-31T23:20:37.895Z,2.30
2018-05-31T23:23:05.604Z,2.87
2018-05-31T23:25:33.341Z,2.35
2018-05-31T23:28:01.013Z,2.50
2018-05-31T23:30:28.708Z,2.22
2018-05-31T23:32:56.588Z,2.60
2018-05-31T23:35:24.445Z,2.30
2018-05-31T23:37:52.148Z,2.40
2018-05-31T23:40:19.898Z,2.60
2018-05-31T23:42:47.542Z,2.10
2018-05-31T23:45:15.343Z,2.90
2018-05-31T23:47:43.122Z,2.60
2018-05-31T23:50:10.898Z,2.78
2018-05-31T23:52:38.594Z,2.90
2018-05-31T23:55:06.377Z,2.72
2018-05-31T23:57:34.126Z,2.85
